Time;durP1;ratioP1;P1;durP2;ratioP2;P2;SDS_P1;SDS_P2;PMS_P1;PMS_P2;Temp;Humidity;BMP_temperature;BMP_pressure;BME280_temperature;BME280_humidity;BME280_pressure;Samples;Min_cycle;Max_cycle;Signal;HPM_P1;HPM_P2
2022/07/31 00:02:07;;;;;;;7.50;6.70;;;19.00;99.90;;;;;;5100338;28;20443;-80
2022/07/31 00:04:33;;;;;;;9.13;5.90;;;19.00;99.90;;;;;;5099448;28;20427;-81
2022/07/31 00:07:00;;;;;;;9.00;7.60;;;19.00;99.90;;;;;;5099065;28;20455;-80
2022/07/31 00:09:28;;;;;;;7.30;6.43;;;18.90;99.90;;;;;;5099209;28;20443;-80
2022/07/31 00:11:55;;;;;;;9.60;7.90;;;18.80;61.10;;;;;;5098666;28;20463;-81
2022/07/31 00:14:22;;;;;;;10.83;6.60;;;18.90;58.90;;;;;;5099457;28;20440;-80
2022/07/31 00:16:50;;;;;;;7.80;7.00;;;18.90;99.90;;;;;;5098847;28;20454;-80
2022/07/31 00:19:17;;;;;;;8.07;7.37;;;18.90;99.90;;;;;;5098338;28;20447;-80
2022/07/31 00:21:43;;;;;;;10.30;8.60;;;18.90;99.90;;;;;;5098350;28;20548;-80
2022/07/31 00:24:10;;;;;;;9.80;7.33;;;18.90;99.90;;;;;;5099172;28;20451;-81
2022/07/31 00:26:37;;;;;;;8.67;7.87;;;18.80;1.00;;;;;;5098030;28;20444;-80
2022/07/31 00:29:04;;;;;;;7.93;7.23;;;18.60;1.00;;;;;;5098540;28;20519;-81
2022/07/31 00:31:31;;;;;;;8.60;7.77;;;18.60;1.00;;;;;;5097378;28;20475;-80
2022/07/31 00:33:59;;;;;;;11.23;9.00;;;18.50;1.00;;;;;;5099052;28;20873;-80
2022/07/31 00:36:25;;;;;;;8.80;7.90;;;18.60;1.00;;;;;;5098511;28;20543;-81
2022/07/31 00:38:52;;;;;;;8.20;7.40;;;18.70;1.00;;;;;;5099299;28;20440;-80
2022/07/31 00:41:19;;;;;;;7.87;7.10;;;18.70;1.00;;;;;;5098170;28;20464;-81
2022/07/31 00:43:46;;;;;;;8.43;6.80;;;18.60;1.00;;;;;;5098224;28;20454;-80
2022/07/31 00:46:12;;;;;;;7.07;6.47;;;18.40;1.00;;;;;;5097917;28;20443;-81
2022/07/31 00:48:39;;;;;;;8.30;7.53;;;18.30;1.00;;;;;;5097625;28;20479;-81
2022/07/31 00:51:07;;;;;;;7.50;6.90;;;18.30;1.00;;;;;;5097805;28;20460;-80
2022/07/31 00:53:34;;;;;;;11.03;7.13;;;18.40;1.00;;;;;;5098028;28;20448;-80
2022/07/31 00:56:01;;;;;;;7.87;7.10;;;18.20;1.00;;;;;;5098436;28;20444;-80
2022/07/31 00:58:28;;;;;;;8.30;6.80;;;18.20;1.00;;;;;;5098763;28;20436;-81
2022/07/31 01:00:54;;;;;;;10.30;7.80;;;18.20;1.00;;;;;;5097269;28;20479;-80
2022/07/31 01:03:21;;;;;;;7.70;6.90;;;18.30;1.00;;;;;;5097953;28;20451;-80
2022/07/31 01:05:48;;;;;;;8.43;7.63;;;18.40;1.00;;;;;;5097343;28;20486;-80
2022/07/31 01:08:16;;;;;;;9.00;8.13;;;18.30;1.00;;;;;;5100486;28;20487;-79
2022/07/31 01:10:51;;;;;;;8.67;7.77;;;18.20;1.00;;;;;;5103570;28;20521;-80
2022/07/31 01:13:27;;;;;;;9.03;8.13;;;18.20;1.00;;;;;;5105217;28;20428;-78
2022/07/31 01:15:57;;;;;;;9.13;7.83;;;18.10;1.00;;;;;;5107900;28;20408;-80
2022/07/31 01:18:26;;;;;;;8.50;7.70;;;18.10;1.00;;;;;;5108848;28;20440;-82
2022/07/31 01:20:57;;;;;;;8.97;8.07;;;18.00;1.00;;;;;;5106763;28;20475;-81
2022/07/31 01:23:51;;;;;;;11.10;8.33;;;18.10;2.80;;;;;;5106482;28;20432;-81
2022/07/31 01:26:25;;;;;;;7.80;7.10;;;18.10;1.00;;;;;;5106430;28;20424;-81
2022/07/31 01:29:08;;;;;;;8.50;7.70;;;18.20;1.00;;;;;;5104846;28;20477;-81
2022/07/31 01:31:40;;;;;;;9.17;8.37;;;18.20;1.00;;;;;;5105134;28;20468;-81
2022/07/31 01:34:13;;;;;;;10.07;9.10;;;18.20;1.00;;;;;;5103443;28;20428;-81
2022/07/31 01:36:48;;;;;;;7.70;6.90;;;18.20;1.00;;;;;;5103456;28;20428;-82
2022/07/31 01:39:16;;;;;;;9.43;8.53;;;18.30;1.00;;;;;;5100839;28;20988;-80
2022/07/31 01:41:47;;;;;;;9.20;8.20;;;18.30;1.00;;;;;;5099091;28;21009;-80
2022/07/31 01:44:17;;;;;;;12.00;10.63;;;18.30;1.00;;;;;;5099525;28;20432;-80
2022/07/31 01:46:45;;;;;;;10.20;9.23;;;18.20;1.00;;;;;;5099599;28;20439;-80
2022/07/31 01:49:14;;;;;;;11.57;9.47;;;18.10;22.10;;;;;;5099463;28;20515;-80
2022/07/31 01:51:43;;;;;;;9.97;9.10;;;18.20;18.80;;;;;;5099240;28;21013;-80
2022/07/31 01:54:11;;;;;;;9.17;8.40;;;18.20;1.00;;;;;;5102223;28;20455;-80
2022/07/31 01:56:39;;;;;;;10.00;9.00;;;18.30;8.40;;;;;;5104796;28;20447;-81
2022/07/31 01:59:09;;;;;;;10.10;9.00;;;18.30;9.60;;;;;;5111115;28;20447;-79
2022/07/31 02:01:38;;;;;;;11.30;10.20;;;18.30;25.00;;;;;;5102409;28;20475;-79
2022/07/31 02:04:06;;;;;;;9.70;8.77;;;18.30;38.60;;;;;;5106102;28;20448;-79
2022/07/31 02:06:34;;;;;;;10.90;9.43;;;18.30;34.60;;;;;;5104519;28;20950;-79
2022/07/31 02:09:02;;;;;;;10.70;8.10;;;18.30;90.40;;;;;;5103255;28;20487;-79
2022/07/31 02:11:29;;;;;;;10.00;9.10;;;18.20;87.10;;;;;;5104667;28;20463;-80
2022/07/31 02:13:57;;;;;;;12.90;8.67;;;18.40;99.90;;;;;;5105835;28;20936;-80
2022/07/31 02:16:26;;;;;;;9.97;8.97;;;18.20;99.90;;;;;;5105129;28;20564;-81
2022/07/31 02:21:40;;;;;;;10.03;9.07;;;18.20;99.90;;;;;;5104780;28;20533;-81
2022/07/31 02:24:08;;;;;;;9.53;8.40;;;18.00;99.90;;;;;;5104029;28;20440;-81
2022/07/31 02:26:38;;;;;;;9.17;8.30;;;18.00;99.90;;;;;;5104234;28;20440;-80
2022/07/31 02:29:06;;;;;;;9.50;8.63;;;17.80;99.90;;;;;;5103454;28;20475;-80
2022/07/31 02:31:36;;;;;;;9.50;8.40;;;17.80;99.90;;;;;;5103034;28;20463;-81
2022/07/31 02:34:04;;;;;;;10.83;8.60;;;17.90;99.90;;;;;;5104070;28;20471;-81
2022/07/31 02:36:33;;;;;;;9.23;8.53;;;17.90;99.90;;;;;;5101262;28;20446;-80
2022/07/31 02:39:02;;;;;;;9.50;8.47;;;17.90;99.90;;;;;;5096782;28;20444;-78
2022/07/31 02:41:29;;;;;;;9.60;8.67;;;17.80;99.90;;;;;;5097585;28;20463;-79
2022/07/31 02:43:57;;;;;;;10.30;9.30;;;17.80;99.90;;;;;;5097629;28;20489;-78
2022/07/31 02:46:24;;;;;;;14.83;9.60;;;17.80;99.90;;;;;;5098366;28;20444;-80
2022/07/31 02:48:52;;;;;;;11.67;8.80;;;17.70;99.90;;;;;;5099478;28;20482;-81
2022/07/31 02:51:21;;;;;;;9.63;8.83;;;17.90;99.90;;;;;;5100147;28;21006;-79
2022/07/31 02:53:48;;;;;;;9.80;9.10;;;17.60;99.90;;;;;;5099053;28;20454;-80
2022/07/31 02:56:16;;;;;;;12.00;8.80;;;17.50;99.90;;;;;;5099297;28;20444;-78
2022/07/31 02:58:43;;;;;;;10.93;8.53;;;17.60;99.90;;;;;;5099552;28;20455;-79
2022/07/31 03:01:09;;;;;;;9.00;8.20;;;17.60;99.90;;;;;;5101532;28;20820;-79
2022/07/31 03:03:36;;;;;;;13.80;9.33;;;17.60;99.90;;;;;;5100838;28;20783;-78
2022/07/31 03:06:03;;;;;;;8.87;8.17;;;17.60;99.90;;;;;;5101900;28;20448;-79
2022/07/31 03:08:34;;;;;;;9.60;8.70;;;17.60;99.90;;;;;;5099767;28;20483;-79
2022/07/31 03:11:04;;;;;;;9.20;8.20;;;17.60;99.90;;;;;;5100673;28;20994;-79
2022/07/31 03:13:33;;;;;;;9.23;8.47;;;17.40;99.90;;;;;;5100126;28;20436;-80
2022/07/31 03:16:01;;;;;;;9.20;8.40;;;17.20;99.90;;;;;;5101207;28;20467;-79
2022/07/31 03:18:28;;;;;;;11.33;8.90;;;17.20;99.90;;;;;;5100941;28;20446;-80
2022/07/31 03:20:56;;;;;;;8.77;8.07;;;17.10;99.90;;;;;;5101268;28;20486;-80
2022/07/31 03:23:26;;;;;;;8.73;8.03;;;17.10;99.90;;;;;;5101082;28;20946;-80
2022/07/31 03:29:09;;;;;;;10.20;8.63;;;17.20;99.90;;;;;;5095301;28;20478;-79
2022/07/31 03:31:49;;;;;;;11.33;9.40;;;17.10;99.90;;;;;;5103336;28;20486;-80
2022/07/31 03:34:17;;;;;;;9.90;9.00;;;;;;;;;;5103005;28;20475;-80
2022/07/31 03:36:45;;;;;;;9.97;9.13;;;17.00;99.90;;;;;;5103671;28;20477;-79
2022/07/31 03:39:12;;;;;;;11.33;10.33;;;;;;;;;;5102350;28;20501;-79
2022/07/31 03:41:44;;;;;;;12.17;10.97;;;17.10;99.90;;;;;;5101159;28;20478;-80
2022/07/31 03:44:12;;;;;;;11.37;10.43;;;17.10;99.90;;;;;;5102286;28;20478;-80
2022/07/31 03:46:39;;;;;;;12.87;11.00;;;16.80;99.90;;;;;;5103148;28;20527;-81
2022/07/31 03:49:08;;;;;;;13.63;10.20;;;17.20;99.90;;;;;;5103742;28;20475;-81
2022/07/31 03:51:35;;;;;;;11.07;10.00;;;17.20;99.90;;;;;;5103624;28;20477;-81
2022/07/31 03:54:02;;;;;;;11.13;10.13;;;17.30;99.90;;;;;;5102273;28;20509;-80
2022/07/31 03:56:29;;;;;;;12.10;10.90;;;17.30;99.90;;;;;;5103868;28;20460;-80
2022/07/31 03:58:57;;;;;;;11.37;10.30;;;17.30;99.90;;;;;;5102818;28;20451;-80
2022/07/31 04:01:24;;;;;;;10.77;9.77;;;17.30;99.90;;;;;;5101947;28;20464;-80
2022/07/31 04:03:57;;;;;;;11.73;10.57;;;17.20;99.90;;;;;;5101626;28;20443;-80
2022/07/31 04:06:24;;;;;;;10.50;9.50;;;17.20;99.90;;;;;;5105427;28;20434;-80
2022/07/31 04:08:51;;;;;;;14.50;11.10;;;17.30;99.90;;;;;;5103470;28;21013;-80
2022/07/31 04:11:18;;;;;;;11.63;10.43;;;17.30;99.90;;;;;;5104101;28;20468;-80
2022/07/31 04:13:44;;;;;;;11.57;10.40;;;17.30;99.90;;;;;;5105557;28;20815;-80
2022/07/31 04:16:13;;;;;;;14.27;11.77;;;17.30;99.90;;;;;;5104862;28;20451;-80
2022/07/31 04:18:39;;;;;;;12.27;10.40;;;17.40;99.90;;;;;;5104759;28;20444;-80
2022/07/31 04:21:06;;;;;;;11.37;10.10;;;17.40;99.90;;;;;;5104242;28;20474;-81
2022/07/31 04:23:33;;;;;;;10.83;9.50;;;17.60;99.90;;;;;;5104712;28;20432;-80
2022/07/31 04:26:00;;;;;;;11.80;9.33;;;17.80;99.90;;;;;;5105409;28;20470;-80
2022/07/31 04:28:26;;;;;;;11.30;10.27;;;17.70;99.90;;;;;;5103850;28;20444;-80
2022/07/31 04:30:53;;;;;;;9.87;8.90;;;17.80;99.90;;;;;;5103602;28;20472;-80
2022/07/31 04:33:22;;;;;;;9.73;9.03;;;17.80;99.90;;;;;;5104612;28;20806;-80
2022/07/31 04:35:48;;;;;;;10.10;9.10;;;17.90;99.90;;;;;;5104295;28;20456;-80
2022/07/31 04:38:16;;;;;;;11.07;10.00;;;17.80;99.90;;;;;;5104050;28;20444;-80
2022/07/31 04:40:43;;;;;;;11.83;10.77;;;17.80;99.90;;;;;;5103847;28;21045;-80
2022/07/31 04:43:09;;;;;;;10.37;9.40;;;17.90;99.90;;;;;;5104590;28;20443;-80
2022/07/31 04:45:36;;;;;;;9.23;8.37;;;17.80;99.90;;;;;;5104048;28;20452;-80
2022/07/31 04:48:03;;;;;;;10.87;8.53;;;17.90;99.90;;;;;;5104690;28;20439;-81
2022/07/31 04:50:31;;;;;;;9.67;8.87;;;17.90;99.90;;;;;;5103059;28;20484;-80
2022/07/31 04:52:58;;;;;;;10.60;8.40;;;18.00;99.90;;;;;;5104452;28;20444;-80
2022/07/31 04:55:25;;;;;;;9.63;7.88;;;18.00;99.90;;;;;;5104642;28;20432;-80
2022/07/31 04:57:51;;;;;;;9.80;8.90;;;18.00;99.90;;;;;;5104140;28;20202;-80
2022/07/31 05:00:18;;;;;;;9.40;8.60;;;18.30;99.90;;;;;;5116630;22;20452;-74
2022/07/31 05:02:45;;;;;;;19.37;16.27;;;18.10;99.90;;;;;;5095200;28;20481;-74
2022/07/31 05:05:12;;;;;;;9.60;8.70;;;18.20;99.90;;;;;;5095056;28;20805;-74
2022/07/31 05:07:40;;;;;;;9.17;8.47;;;18.20;99.90;;;;;;5095368;28;20440;-74
2022/07/31 05:10:07;;;;;;;9.10;8.30;;;18.50;99.90;;;;;;5095189;28;20479;-74
2022/07/31 05:12:34;;;;;;;9.35;8.35;;;18.30;99.90;;;;;;5094350;28;20476;-74
2022/07/31 05:15:01;;;;;;;10.13;9.13;;;18.40;99.90;;;;;;5094957;28;20210;-74
2022/07/31 05:17:27;;;;;;;9.60;8.70;;;18.40;95.40;;;;;;5094238;28;20444;-74
2022/07/31 05:19:54;;;;;;;10.70;9.80;;;18.50;90.20;;;;;;5094644;28;20470;-74
2022/07/31 05:22:21;;;;;;;11.47;10.33;;;18.70;55.20;;;;;;5094769;28;20455;-74
2022/07/31 05:24:49;;;;;;;10.27;9.30;;;18.80;63.20;;;;;;5094683;28;20469;-74
2022/07/31 05:27:15;;;;;;;14.73;9.50;;;18.90;20.60;;;;;;5094657;28;20448;-74
2022/07/31 05:29:42;;;;;;;10.13;9.33;;;18.90;16.40;;;;;;5094540;28;20476;-74
2022/07/31 05:32:09;;;;;;;10.47;9.30;;;19.00;38.90;;;;;;5094326;28;20464;-74
2022/07/31 05:34:35;;;;;;;12.10;9.03;;;19.20;28.40;;;;;;5094195;28;20448;-75
2022/07/31 05:37:02;;;;;;;14.17;9.37;;;19.30;1.00;;;;;;5094476;28;20447;-74
2022/07/31 05:39:30;;;;;;;9.87;8.60;;;19.20;1.00;;;;;;5094179;28;20440;-74
2022/07/31 05:41:58;;;;;;;9.57;8.73;;;19.20;1.00;;;;;;5094194;28;20475;-74
2022/07/31 05:44:24;;;;;;;10.70;9.70;;;19.30;1.00;;;;;;5094236;28;20862;-74
2022/07/31 05:46:51;;;;;;;11.10;9.43;;;19.40;1.00;;;;;;5094273;28;20443;-74
2022/07/31 05:49:19;;;;;;;10.50;9.40;;;19.60;1.00;;;;;;5094827;28;20471;-74
2022/07/31 05:51:46;;;;;;;8.33;7.63;;;19.60;1.00;;;;;;5094041;28;20468;-75
2022/07/31 05:54:13;;;;;;;8.90;8.10;;;19.60;1.00;;;;;;5094117;28;20480;-74
2022/07/31 05:56:39;;;;;;;9.23;8.30;;;19.60;1.00;;;;;;5094149;28;20454;-74
2022/07/31 05:59:08;;;;;;;9.63;8.70;;;19.60;1.00;;;;;;5094094;28;20489;-76
2022/07/31 06:01:35;;;;;;;10.47;9.47;;;19.80;1.00;;;;;;5093561;28;20486;-75
2022/07/31 06:04:02;;;;;;;9.50;8.57;;;20.00;1.00;;;;;;5094026;28;20447;-75
2022/07/31 06:06:29;;;;;;;10.30;9.00;;;20.10;1.00;;;;;;5094073;28;20443;-75
2022/07/31 06:08:55;;;;;;;10.10;9.20;;;20.10;1.00;;;;;;5094016;28;20451;-75
2022/07/31 06:11:22;;;;;;;9.70;8.80;;;19.90;1.00;;;;;;5093396;28;21029;-75
2022/07/31 06:13:49;;;;;;;9.40;8.60;;;19.90;1.00;;;;;;5093473;28;20440;-74
2022/07/31 06:16:17;;;;;;;8.97;8.23;;;19.80;1.00;;;;;;5093754;28;20458;-75
2022/07/31 06:18:44;;;;;;;11.50;9.23;;;19.80;1.00;;;;;;5093711;28;20543;-74
2022/07/31 06:21:11;;;;;;;8.63;7.53;;;19.90;1.00;;;;;;5093470;28;20576;-75
2022/07/31 06:23:38;;;;;;;11.47;9.27;;;20.00;1.00;;;;;;5093259;28;20448;-74
2022/07/31 06:26:05;;;;;;;9.73;8.93;;;20.10;1.00;;;;;;5093532;28;20448;-74
2022/07/31 06:28:31;;;;;;;11.70;8.50;;;20.00;1.00;;;;;;5092450;28;20950;-74
2022/07/31 06:30:58;;;;;;;28.30;9.70;;;20.00;1.00;;;;;;5093049;28;21013;-74
2022/07/31 06:33:26;;;;;;;9.57;8.80;;;20.00;1.00;;;;;;5093254;28;20444;-74
2022/07/31 06:35:53;;;;;;;9.37;8.47;;;20.10;1.00;;;;;;5093115;28;20448;-74
2022/07/31 06:38:23;;;;;;;8.27;7.57;;;20.20;99.90;;;;;;5093408;28;20479;-74
2022/07/31 06:40:49;;;;;;;9.17;7.33;;;20.40;99.90;;;;;;5093346;28;20467;-74
2022/07/31 06:43:17;;;;;;;8.50;7.80;;;20.40;1.00;;;;;;5093114;28;20439;-74
2022/07/31 06:45:44;;;;;;;11.03;8.73;;;20.50;99.90;;;;;;5092942;28;20455;-75
2022/07/31 06:48:13;;;;;;;8.00;7.30;;;20.50;29.90;;;;;;5093366;28;20452;-74
2022/07/31 06:50:41;;;;;;;8.43;7.67;;;20.60;99.90;;;;;;5093075;28;20541;-74
2022/07/31 06:53:08;;;;;;;8.40;7.50;;;20.70;1.00;;;;;;5093214;28;20443;-74
2022/07/31 06:55:34;;;;;;;7.43;6.93;;;20.90;1.00;;;;;;5093120;28;20450;-74
2022/07/31 06:58:01;;;;;;;7.60;7.00;;;21.00;1.00;;;;;;5093040;28;20457;-74
2022/07/31 07:00:28;;;;;;;8.13;7.43;;;21.00;1.00;;;;;;5093909;28;20468;-74
2022/07/31 07:02:54;;;;;;;10.80;7.30;;;21.00;99.90;;;;;;5093647;28;20539;-74
2022/07/31 07:05:21;;;;;;;11.60;8.57;;;21.10;99.90;;;;;;5094226;28;20483;-74
2022/07/31 07:07:50;;;;;;;10.27;7.67;;;20.90;1.00;;;;;;5093143;28;20444;-74
2022/07/31 07:10:16;;;;;;;7.00;6.40;;;20.70;99.90;;;;;;5092957;28;20487;-74
2022/07/31 07:12:43;;;;;;;13.70;7.27;;;20.80;1.00;;;;;;5092943;28;20444;-74
2022/07/31 07:15:10;;;;;;;6.40;5.80;;;20.90;99.90;;;;;;5092809;28;20543;-74
2022/07/31 07:17:37;;;;;;;7.80;7.03;;;21.00;99.90;;;;;;5092855;28;20447;-74
2022/07/31 07:20:05;;;;;;;7.33;6.73;;;21.20;1.00;;;;;;5092760;28;20439;-74
2022/07/31 07:22:32;;;;;;;7.53;6.93;;;21.20;1.00;;;;;;5093018;28;20551;-74
2022/07/31 07:25:00;;;;;;;6.93;6.30;;;21.20;1.00;;;;;;5092791;28;20448;-74
2022/07/31 07:27:27;;;;;;;9.40;5.20;;;21.30;20.50;;;;;;5092430;28;20483;-74
2022/07/31 07:29:54;;;;;;;7.33;6.73;;;21.40;4.20;;;;;;5092682;28;20490;-74
2022/07/31 07:32:20;;;;;;;7.17;6.50;;;21.50;9.10;;;;;;5092540;28;20448;-74
2022/07/31 07:34:47;;;;;;;10.30;6.20;;;21.60;99.90;;;;;;5092815;28;20459;-74
2022/07/31 07:37:14;;;;;;;10.00;6.53;;;21.70;27.60;;;;;;5092756;28;20444;-75
2022/07/31 07:39:40;;;;;;;7.47;6.87;;;21.70;1.00;;;;;;5093147;28;20803;-74
2022/07/31 07:42:08;;;;;;;6.60;6.00;;;21.80;99.90;;;;;;5096670;28;20468;-74
2022/07/31 07:44:35;;;;;;;7.00;6.33;;;21.90;1.00;;;;;;5096317;28;20946;-74
2022/07/31 07:47:02;;;;;;;6.67;6.10;;;22.00;1.00;;;;;;5096535;28;20436;-74
2022/07/31 07:49:29;;;;;;;7.43;6.73;;;22.00;99.90;;;;;;5096283;28;20799;-74
2022/07/31 07:51:55;;;;;;;13.30;6.30;;;22.00;1.00;;;;;;5096301;28;20467;-74
2022/07/31 07:54:22;;;;;;;6.33;5.77;;;22.10;99.90;;;;;;5096186;28;20440;-74
2022/07/31 07:56:50;;;;;;;7.70;7.00;;;22.10;99.90;;;;;;5096022;28;20447;-75
2022/07/31 07:59:18;;;;;;;6.37;5.93;;;22.10;99.90;;;;;;5095808;28;20451;-74
2022/07/31 08:01:44;;;;;;;9.63;5.90;;;22.20;99.90;;;;;;5095570;28;20483;-74
2022/07/31 08:04:11;;;;;;;6.37;5.97;;;22.20;99.90;;;;;;5095970;28;20459;-74
2022/07/31 08:06:38;;;;;;;7.43;6.60;;;22.10;99.90;;;;;;5096682;28;20821;-74
2022/07/31 08:09:05;;;;;;;6.50;6.10;;;22.20;99.90;;;;;;5095939;28;20448;-73
2022/07/31 08:11:31;;;;;;;5.87;5.37;;;22.30;99.90;;;;;;5095778;28;20487;-73
2022/07/31 08:13:58;;;;;;;8.27;6.30;;;22.30;99.90;;;;;;5096202;28;20930;-75
2022/07/31 08:16:26;;;;;;;5.27;4.90;;;22.40;99.90;;;;;;5095759;28;20443;-75
2022/07/31 08:18:53;;;;;;;5.60;5.10;;;22.60;99.90;;;;;;5095908;28;20493;-74
2022/07/31 08:21:20;;;;;;;5.53;5.07;;;22.70;99.90;;;;;;5096071;28;20479;-74
2022/07/31 08:23:47;;;;;;;6.30;5.83;;;22.70;29.10;;;;;;5095922;28;20467;-76
2022/07/31 08:26:14;;;;;;;5.37;5.07;;;22.70;99.90;;;;;;5095745;28;20452;-76
2022/07/31 08:28:41;;;;;;;6.43;5.93;;;22.80;99.90;;;;;;5095763;28;20444;-75
2022/07/31 08:31:08;;;;;;;6.47;5.87;;;22.80;36.80;;;;;;5095020;28;20560;-75
2022/07/31 08:33:36;;;;;;;5.90;5.20;;;22.90;26.70;;;;;;5095404;28;20448;-74
2022/07/31 08:36:03;;;;;;;6.37;5.00;;;22.90;35.00;;;;;;5095434;28;20448;-74
2022/07/31 08:38:30;;;;;;;6.70;5.57;;;23.00;8.10;;;;;;5095523;28;20455;-74
2022/07/31 08:40:57;;;;;;;7.40;5.67;;;23.00;99.90;;;;;;5095446;28;20950;-74
2022/07/31 08:43:23;;;;;;;6.80;5.90;;;23.10;99.90;;;;;;5095269;28;20440;-74
2022/07/31 08:45:52;;;;;;;6.40;5.90;;;23.10;99.90;;;;;;5095364;28;20452;-74
2022/07/31 08:48:23;;;;;;;6.33;5.67;;;23.30;99.90;;;;;;5095229;28;20814;-74
2022/07/31 08:50:53;;;;;;;5.90;5.50;;;23.10;22.90;;;;;;5094919;28;20553;-74
2022/07/31 08:53:22;;;;;;;6.10;5.60;;;23.30;76.90;;;;;;5094283;28;20443;-74
2022/07/31 08:55:49;;;;;;;6.53;6.00;;;23.40;3.40;;;;;;5094868;28;20444;-74
2022/07/31 08:58:19;;;;;;;6.10;5.60;;;23.50;1.00;;;;;;5095539;28;20482;-75
2022/07/31 09:00:45;;;;;;;5.40;4.97;;;23.50;1.00;;;;;;5094859;28;20490;-74
2022/07/31 09:03:12;;;;;;;5.63;5.17;;;23.50;1.00;;;;;;5095103;28;20452;-74
2022/07/31 09:05:39;;;;;;;5.60;5.20;;;23.60;1.00;;;;;;5094815;28;20447;-74
2022/07/31 09:08:07;;;;;;;5.30;4.90;;;23.60;67.10;;;;;;5094747;28;20451;-74
2022/07/31 09:10:34;;;;;;;5.50;5.10;;;23.70;1.00;;;;;;5094745;28;20479;-74
2022/07/31 09:13:11;;;;;;;5.50;5.10;;;23.70;1.00;;;;;;5094458;28;20947;-74
2022/07/31 09:15:38;;;;;;;4.50;4.10;;;23.70;1.00;;;;;;5094701;28;20494;-74
2022/07/31 09:18:15;;;;;;;5.27;4.87;;;23.80;1.00;;;;;;5094523;28;20448;-74
2022/07/31 09:20:53;;;;;;;7.77;7.10;;;23.90;1.00;;;;;;5094440;28;20467;-74
2022/07/31 09:23:22;;;;;;;7.50;4.63;;;23.90;1.00;;;;;;5094033;28;20436;-74
2022/07/31 09:25:55;;;;;;;5.47;5.07;;;23.80;1.00;;;;;;5094419;28;20448;-75
2022/07/31 09:28:32;;;;;;;5.77;5.13;;;23.90;1.00;;;;;;5094270;28;20448;-74
2022/07/31 09:30:59;;;;;;;5.00;4.60;;;23.90;1.00;;;;;;5093931;28;20479;-74
2022/07/31 09:33:28;;;;;;;5.40;4.67;;;24.00;1.00;;;;;;5095158;28;20493;-74
2022/07/31 09:35:56;;;;;;;7.80;4.60;;;24.00;1.00;;;;;;5094254;28;20857;-75
2022/07/31 09:38:31;;;;;;;4.60;4.20;;;24.10;1.00;;;;;;5093826;28;20466;-75
2022/07/31 09:40:58;;;;;;;4.57;4.27;;;24.10;1.00;;;;;;5094212;28;20509;-74
2022/07/31 09:43:27;;;;;;;5.27;4.87;;;24.20;1.00;;;;;;5094051;28;20447;-74
2022/07/31 09:45:57;;;;;;;5.30;4.70;;;24.20;1.00;;;;;;5094465;28;20447;-74
2022/07/31 09:48:24;;;;;;;4.70;4.20;;;24.30;1.00;;;;;;5093880;28;20467;-75
2022/07/31 09:50:53;;;;;;;6.03;4.23;;;24.40;1.00;;;;;;5093671;28;20880;-74
2022/07/31 09:53:20;;;;;;;12.03;10.90;;;24.50;1.00;;;;;;5093686;28;20476;-74
2022/07/31 09:55:51;;;;;;;7.93;7.37;;;24.60;1.00;;;;;;5093791;28;20439;-74
2022/07/31 09:58:18;;;;;;;12.00;9.67;;;24.60;1.00;;;;;;5094035;28;20428;-75
2022/07/31 10:00:47;;;;;;;6.20;4.77;;;24.50;1.00;;;;;;5093615;28;20989;-74
2022/07/31 10:03:16;;;;;;;5.50;5.03;;;24.60;1.00;;;;;;5093403;28;20448;-75
2022/07/31 10:05:43;;;;;;;5.97;4.70;;;24.70;1.00;;;;;;5094497;28;20463;-75
2022/07/31 10:08:12;;;;;;;7.87;4.33;;;24.70;1.00;;;;;;5093414;28;20448;-74
2022/07/31 10:10:39;;;;;;;5.70;5.20;;;24.70;1.00;;;;;;5093512;28;20877;-74
2022/07/31 10:13:12;;;;;;;4.60;4.30;;;24.90;1.00;;;;;;5093490;28;20443;-74
2022/07/31 10:15:40;;;;;;;7.10;5.50;;;24.70;1.00;;;;;;5093601;28;20464;-73
2022/07/31 10:18:08;;;;;;;6.33;5.10;;;24.80;1.00;;;;;;5093446;28;20451;-75
2022/07/31 10:20:37;;;;;;;5.47;5.07;;;24.60;1.00;;;;;;5093226;28;21031;-78
2022/07/31 10:23:09;;;;;;;7.00;4.77;;;24.70;1.00;;;;;;5093338;28;20466;-73
2022/07/31 10:25:42;;;;;;;5.27;4.77;;;24.80;1.00;;;;;;5093361;28;20432;-74
2022/07/31 10:28:11;;;;;;;6.00;5.60;;;24.90;1.00;;;;;;5093478;28;20458;-73
2022/07/31 10:30:38;;;;;;;5.50;5.10;;;25.00;1.00;;;;;;5092931;28;20479;-73
2022/07/31 10:33:05;;;;;;;5.70;5.20;;;25.10;1.00;;;;;;5093022;28;20482;-75
2022/07/31 10:35:40;;;;;;;5.13;4.70;;;25.00;1.00;;;;;;5093037;28;20803;-75
2022/07/31 10:38:15;;;;;;;5.10;4.77;;;25.20;1.00;;;;;;5093047;28;20447;-74
2022/07/31 10:40:45;;;;;;;5.17;4.77;;;25.20;1.00;;;;;;5092780;28;20456;-74
2022/07/31 10:43:19;;;;;;;6.07;5.10;;;25.20;1.00;;;;;;5093153;28;20497;-75
2022/07/31 10:45:46;;;;;;;6.20;5.60;;;25.00;1.00;;;;;;5093012;28;20440;-74
2022/07/31 10:48:13;;;;;;;6.10;5.50;;;25.00;1.00;;;;;;5092560;28;20454;-74
2022/07/31 10:50:41;;;;;;;5.87;5.30;;;25.00;1.00;;;;;;5092947;28;20488;-74
2022/07/31 10:53:09;;;;;;;5.80;4.90;;;25.20;1.00;;;;;;5092987;28;20455;-74
2022/07/31 10:55:37;;;;;;;5.17;4.77;;;25.30;1.00;;;;;;5093010;28;20472;-74
2022/07/31 10:58:09;;;;;;;5.90;5.40;;;25.30;1.00;;;;;;5092706;28;20452;-75
2022/07/31 11:00:38;;;;;;;7.70;5.03;;;25.40;1.00;;;;;;5116215;22;20487;-76
2022/07/31 11:03:15;;;;;;;5.23;4.77;;;25.50;1.00;;;;;;5074144;28;20532;-77
2022/07/31 11:05:53;;;;;;;5.07;4.77;;;25.60;1.00;;;;;;5073243;28;20440;-76
2022/07/31 11:08:20;;;;;;;5.23;4.83;;;25.60;1.00;;;;;;5074082;28;20429;-78
2022/07/31 11:10:50;;;;;;;5.57;5.10;;;25.50;1.00;;;;;;5074049;28;20567;-77
2022/07/31 11:13:17;;;;;;;5.00;4.50;;;25.60;1.00;;;;;;5075064;28;20445;-77
2022/07/31 11:15:45;;;;;;;5.13;4.73;;;25.70;1.00;;;;;;5075123;28;20522;-76
2022/07/31 11:18:13;;;;;;;5.50;5.10;;;25.80;1.00;;;;;;5077865;28;20437;-76
2022/07/31 11:20:45;;;;;;;5.33;4.67;;;26.00;1.00;;;;;;5077459;28;20993;-76
2022/07/31 11:23:14;;;;;;;4.63;4.33;;;25.60;1.00;;;;;;5077386;28;20425;-77
2022/07/31 11:25:41;;;;;;;11.43;10.23;;;25.60;1.00;;;;;;5077006;28;20453;-77
2022/07/31 11:28:12;;;;;;;4.73;4.33;;;25.60;1.00;;;;;;5076693;28;20498;-77
2022/07/31 11:30:51;;;;;;;4.70;4.40;;;25.70;1.00;;;;;;5076840;28;20445;-77
2022/07/31 11:33:32;;;;;;;5.77;4.40;;;25.80;1.00;;;;;;5076753;28;20495;-76
2022/07/31 11:36:07;;;;;;;4.43;4.13;;;25.80;1.00;;;;;;5077581;28;20742;-77
2022/07/31 11:38:35;;;;;;;5.13;4.83;;;25.80;1.00;;;;;;5076725;28;20934;-77
2022/07/31 11:41:02;;;;;;;5.00;4.50;;;25.80;1.00;;;;;;5078190;28;20469;-77
2022/07/31 11:43:29;;;;;;;15.00;5.50;;;25.80;1.00;;;;;;5078786;28;20457;-77
2022/07/31 11:45:58;;;;;;;4.90;4.60;;;25.90;1.00;;;;;;5079199;28;20822;-76
2022/07/31 11:48:25;;;;;;;5.80;5.37;;;26.10;1.00;;;;;;5076784;28;20440;-76
2022/07/31 11:50:53;;;;;;;7.37;5.80;;;26.10;1.00;;;;;;5077227;28;20571;-76
2022/07/31 11:53:20;;;;;;;5.73;5.23;;;26.10;1.00;;;;;;5076485;28;20490;-76
2022/07/31 11:55:49;;;;;;;6.00;4.73;;;26.00;1.00;;;;;;5076307;28;20480;-77
2022/07/31 11:58:18;;;;;;;5.10;4.77;;;25.90;1.00;;;;;;5076978;28;20452;-75
2022/07/31 12:00:49;;;;;;;5.93;5.03;;;25.80;1.00;;;;;;5076011;28;20468;-76
2022/07/31 12:03:19;;;;;;;4.70;4.40;;;25.70;1.00;;;;;;5075469;28;20428;-77
2022/07/31 12:05:47;;;;;;;5.40;4.90;;;25.80;1.00;;;;;;5075791;28;20433;-77
2022/07/31 12:08:17;;;;;;;6.73;4.73;;;25.90;1.00;;;;;;5075746;28;20448;-77
2022/07/31 12:10:45;;;;;;;4.50;4.20;;;26.20;1.00;;;;;;5075337;28;20472;-77
2022/07/31 12:13:14;;;;;;;7.40;5.30;;;26.10;1.00;;;;;;5075368;28;20448;-77
2022/07/31 12:15:41;;;;;;;4.90;4.60;;;26.10;1.00;;;;;;5075967;28;20514;-77
2022/07/31 12:18:08;;;;;;;7.20;5.50;;;26.10;1.00;;;;;;5075927;28;20467;-76
2022/07/31 12:20:36;;;;;;;6.70;5.27;;;26.60;1.00;;;;;;5075891;28;20785;-75
2022/07/31 12:23:05;;;;;;;5.60;5.20;;;26.50;1.00;;;;;;5076333;28;20514;-76
2022/07/31 12:25:44;;;;;;;5.33;4.83;;;26.70;1.00;;;;;;5078310;28;20947;-75
2022/07/31 12:28:13;;;;;;;6.70;4.73;;;26.80;1.00;;;;;;5081684;28;20510;-76
2022/07/31 12:30:41;;;;;;;5.20;4.80;;;26.90;1.00;;;;;;5081046;28;20441;-76
2022/07/31 12:33:09;;;;;;;4.80;4.50;;;27.00;1.00;;;;;;5079742;28;20484;-76
2022/07/31 12:35:39;;;;;;;5.17;4.77;;;27.00;1.00;;;;;;5076665;28;20773;-76
2022/07/31 12:38:06;;;;;;;10.67;9.40;;;26.80;1.00;;;;;;5076091;28;20824;-77
2022/07/31 12:40:33;;;;;;;5.87;5.20;;;26.70;1.00;;;;;;5076302;28;20449;-76
2022/07/31 12:43:00;;;;;;;6.20;5.70;;;26.40;1.00;;;;;;5076971;28;20441;-76
2022/07/31 12:45:35;;;;;;;5.53;5.03;;;26.20;1.00;;;;;;5075720;28;20568;-77
2022/07/31 12:48:02;;;;;;;6.77;6.17;;;26.10;1.00;;;;;;5075109;28;21004;-75
2022/07/31 12:50:31;;;;;;;6.50;6.00;;;25.90;1.00;;;;;;5075153;28;21008;-76
2022/07/31 12:53:02;;;;;;;7.53;5.80;;;25.80;1.00;;;;;;5074875;28;20481;-76
2022/07/31 12:55:33;;;;;;;6.10;5.60;;;25.70;1.00;;;;;;5074718;28;20429;-75
2022/07/31 12:58:00;;;;;;;8.73;8.03;;;25.70;1.00;;;;;;5074989;28;20452;-75
2022/07/31 13:00:28;;;;;;;5.73;5.30;;;25.80;1.00;;;;;;5074673;28;20448;-76
2022/07/31 13:02:56;;;;;;;6.13;5.63;;;25.70;1.00;;;;;;5074444;28;20441;-76